sensor_id;sensor_type;location;lat;lon;timestamp;temperature;humidity
38480;DHT22;53952;51.980;5.934;2022-07-01T00:01:38;26.50;50.90
38480;DHT22;53952;51.980;5.934;2022-07-01T00:04:05;26.50;50.90
38480;DHT22;53952;51.980;5.934;2022-07-01T00:06:31;26.50;51.00
38480;DHT22;53952;51.980;5.934;2022-07-01T00:08:57;26.50;50.90
38480;DHT22;53952;51.980;5.934;2022-07-01T00:11:22;26.50;50.90
38480;DHT22;53952;51.980;5.934;2022-07-01T00:13:48;26.50;50.90
38480;DHT22;53952;51.980;5.934;2022-07-01T00:16:14;26.50;50.90
38480;DHT22;53952;51.980;5.934;2022-07-01T00:18:39;26.50;50.90
38480;DHT22;53952;51.980;5.934;2022-07-01T00:21:05;26.50;50.90
38480;DHT22;53952;51.980;5.934;2022-07-01T00:23:30;26.50;50.90
38480;DHT22;53952;51.980;5.934;2022-07-01T00:25:57;26.50;50.90
38480;DHT22;53952;51.980;5.934;2022-07-01T00:28:22;26.50;50.90
38480;DHT22;53952;51.980;5.934;2022-07-01T00:30:48;26.40;50.80
38480;DHT22;53952;51.980;5.934;2022-07-01T00:33:14;26.50;50.80
38480;DHT22;53952;51.980;5.934;2022-07-01T00:35:39;26.40;50.80
38480;DHT22;53952;51.980;5.934;2022-07-01T00:38:05;26.40;50.80
38480;DHT22;53952;51.980;5.934;2022-07-01T00:40:31;26.40;50.80
38480;DHT22;53952;51.980;5.934;2022-07-01T00:42:56;26.40;50.80
38480;DHT22;53952;51.980;5.934;2022-07-01T00:45:22;26.40;50.70
38480;DHT22;53952;51.980;5.934;2022-07-01T00:47:48;26.40;51.40
38480;DHT22;53952;51.980;5.934;2022-07-01T00:50:15;26.40;50.70
38480;DHT22;53952;51.980;5.934;2022-07-01T00:52:42;26.40;50.70
38480;DHT22;53952;51.980;5.934;2022-07-01T00:55:11;26.40;50.70
38480;DHT22;53952;51.980;5.934;2022-07-01T00:57:39;26.40;50.60
38480;DHT22;53952;51.980;5.934;2022-07-01T01:00:06;26.40;50.60
38480;DHT22;53952;51.980;5.934;2022-07-01T01:02:33;26.40;50.60
38480;DHT22;53952;51.980;5.934;2022-07-01T01:04:59;26.40;50.60
38480;DHT22;53952;51.980;5.934;2022-07-01T01:07:25;26.40;50.60
38480;DHT22;53952;51.980;5.934;2022-07-01T01:09:50;26.40;50.60
38480;DHT22;53952;51.980;5.934;2022-07-01T01:12:16;26.40;50.50
38480;DHT22;53952;51.980;5.934;2022-07-01T01:14:52;26.30;50.50
38480;DHT22;53952;51.980;5.934;2022-07-01T01:17:18;26.40;50.50
38480;DHT22;53952;51.980;5.934;2022-07-01T01:19:46;26.40;50.60
38480;DHT22;53952;51.980;5.934;2022-07-01T01:22:15;26.40;50.50
38480;DHT22;53952;51.980;5.934;2022-07-01T01:24:41;26.40;50.50
38480;DHT22;53952;51.980;5.934;2022-07-01T01:27:07;26.30;50.40
38480;DHT22;53952;51.980;5.934;2022-07-01T01:29:35;26.30;50.40
38480;DHT22;53952;51.980;5.934;2022-07-01T01:32:01;26.40;50.40
38480;DHT22;53952;51.980;5.934;2022-07-01T01:34:27;26.30;50.40
38480;DHT22;53952;51.980;5.934;2022-07-01T01:36:53;26.30;50.40
38480;DHT22;53952;51.980;5.934;2022-07-01T01:39:19;26.30;50.30
38480;DHT22;53952;51.980;5.934;2022-07-01T01:41:46;26.30;50.30
38480;DHT22;53952;51.980;5.934;2022-07-01T01:44:12;26.30;50.30
38480;DHT22;53952;51.980;5.934;2022-07-01T01:46:38;26.30;50.30
38480;DHT22;53952;51.980;5.934;2022-07-01T01:49:05;26.30;50.30
38480;DHT22;53952;51.980;5.934;2022-07-01T01:51:31;26.30;50.30
38480;DHT22;53952;51.980;5.934;2022-07-01T01:53:56;26.30;50.30
38480;DHT22;53952;51.980;5.934;2022-07-01T01:56:22;26.20;50.20
38480;DHT22;53952;51.980;5.934;2022-07-01T01:58:48;26.20;50.20
38480;DHT22;53952;51.980;5.934;2022-07-01T02:01:15;26.20;50.20
38480;DHT22;53952;51.980;5.934;2022-07-01T02:03:43;26.20;50.20
38480;DHT22;53952;51.980;5.934;2022-07-01T02:06:09;26.20;50.30
38480;DHT22;53952;51.980;5.934;2022-07-01T02:08:36;26.20;50.20
38480;DHT22;53952;51.980;5.934;2022-07-01T02:11:02;26.20;50.20
38480;DHT22;53952;51.980;5.934;2022-07-01T02:13:28;26.20;50.30
38480;DHT22;53952;51.980;5.934;2022-07-01T02:15:54;26.20;50.30
38480;DHT22;53952;51.980;5.934;2022-07-01T02:18:20;26.20;50.30
38480;DHT22;53952;51.980;5.934;2022-07-01T02:20:46;26.20;50.40
38480;DHT22;53952;51.980;5.934;2022-07-01T02:23:11;26.10;50.30
38480;DHT22;53952;51.980;5.934;2022-07-01T02:25:37;26.20;50.30
38480;DHT22;53952;51.980;5.934;2022-07-01T02:28:03;26.10;50.30
38480;DHT22;53952;51.980;5.934;2022-07-01T02:30:29;26.10;50.30
38480;DHT22;53952;51.980;5.934;2022-07-01T02:32:56;26.10;50.30
38480;DHT22;53952;51.980;5.934;2022-07-01T02:35:22;26.10;50.20
38480;DHT22;53952;51.980;5.934;2022-07-01T02:37:48;26.10;50.20
38480;DHT22;53952;51.980;5.934;2022-07-01T02:40:14;26.10;50.20
38480;DHT22;53952;51.980;5.934;2022-07-01T02:42:40;26.10;50.20
38480;DHT22;53952;51.980;5.934;2022-07-01T02:45:07;26.10;50.20
38480;DHT22;53952;51.980;5.934;2022-07-01T02:47:37;26.10;50.30
38480;DHT22;53952;51.980;5.934;2022-07-01T02:50:05;26.10;50.30
38480;DHT22;53952;51.980;5.934;2022-07-01T02:52:31;26.10;50.30
38480;DHT22;53952;51.980;5.934;2022-07-01T02:54:57;26.00;50.30
38480;DHT22;53952;51.980;5.934;2022-07-01T02:57:23;26.00;50.30
38480;DHT22;53952;51.980;5.934;2022-07-01T02:59:49;26.00;50.30
38480;DHT22;53952;51.980;5.934;2022-07-01T03:02:16;26.00;50.30
38480;DHT22;53952;51.980;5.934;2022-07-01T03:04:43;26.00;50.30
38480;DHT22;53952;51.980;5.934;2022-07-01T03:07:09;26.00;50.30
38480;DHT22;53952;51.980;5.934;2022-07-01T03:09:35;26.00;50.30
38480;DHT22;53952;51.980;5.934;2022-07-01T03:12:01;26.00;50.30
38480;DHT22;53952;51.980;5.934;2022-07-01T03:14:46;26.00;50.30
38480;DHT22;53952;51.980;5.934;2022-07-01T03:17:12;25.90;50.30
38480;DHT22;53952;51.980;5.934;2022-07-01T03:19:37;25.90;50.20
38480;DHT22;53952;51.980;5.934;2022-07-01T03:22:03;25.90;50.30
38480;DHT22;53952;51.980;5.934;2022-07-01T03:24:29;25.90;50.20
38480;DHT22;53952;51.980;5.934;2022-07-01T03:26:54;25.90;50.10
38480;DHT22;53952;51.980;5.934;2022-07-01T03:29:20;25.90;50.10
38480;DHT22;53952;51.980;5.934;2022-07-01T03:31:45;25.90;50.10
38480;DHT22;53952;51.980;5.934;2022-07-01T03:34:11;25.90;50.10
38480;DHT22;53952;51.980;5.934;2022-07-01T03:36:37;25.90;50.10
38480;DHT22;53952;51.980;5.934;2022-07-01T03:39:02;25.90;50.10
38480;DHT22;53952;51.980;5.934;2022-07-01T03:41:30;25.90;50.10
38480;DHT22;53952;51.980;5.934;2022-07-01T03:43:55;25.90;50.10
38480;DHT22;53952;51.980;5.934;2022-07-01T03:46:21;25.90;50.10
38480;DHT22;53952;51.980;5.934;2022-07-01T03:48:46;25.90;50.10
38480;DHT22;53952;51.980;5.934;2022-07-01T03:51:12;25.90;50.10
38480;DHT22;53952;51.980;5.934;2022-07-01T03:53:38;25.90;50.10
38480;DHT22;53952;51.980;5.934;2022-07-01T03:56:22;25.90;50.10
38480;DHT22;53952;51.980;5.934;2022-07-01T03:58:48;25.90;50.10
38480;DHT22;53952;51.980;5.934;2022-07-01T04:01:13;25.80;49.90
38480;DHT22;53952;51.980;5.934;2022-07-01T04:03:39;25.80;49.90
38480;DHT22;53952;51.980;5.934;2022-07-01T04:06:05;25.80;49.90
38480;DHT22;53952;51.980;5.934;2022-07-01T04:08:31;25.80;50.50
38480;DHT22;53952;51.980;5.934;2022-07-01T04:10:56;25.90;49.90
38480;DHT22;53952;51.980;5.934;2022-07-01T04:13:22;25.80;49.80
38480;DHT22;53952;51.980;5.934;2022-07-01T04:15:48;25.80;49.90
38480;DHT22;53952;51.980;5.934;2022-07-01T04:23:20;25.80;49.80
38480;DHT22;53952;51.980;5.934;2022-07-01T04:28:21;25.80;49.80
38480;DHT22;53952;51.980;5.934;2022-07-01T04:30:47;25.80;49.80
38480;DHT22;53952;51.980;5.934;2022-07-01T04:33:12;25.80;49.80
38480;DHT22;53952;51.980;5.934;2022-07-01T04:35:38;25.80;49.80
38480;DHT22;53952;51.980;5.934;2022-07-01T04:38:05;25.80;49.80
38480;DHT22;53952;51.980;5.934;2022-07-01T04:40:30;25.80;49.80
38480;DHT22;53952;51.980;5.934;2022-07-01T04:42:56;25.70;49.80
38480;DHT22;53952;51.980;5.934;2022-07-01T04:45:21;25.70;49.70
38480;DHT22;53952;51.980;5.934;2022-07-01T04:47:47;25.70;49.70
38480;DHT22;53952;51.980;5.934;2022-07-01T04:50:13;25.70;49.70
38480;DHT22;53952;51.980;5.934;2022-07-01T04:52:38;25.80;49.80
38480;DHT22;53952;51.980;5.934;2022-07-01T04:55:04;25.70;49.70
38480;DHT22;53952;51.980;5.934;2022-07-01T04:57:31;25.70;49.80
38480;DHT22;53952;51.980;5.934;2022-07-01T04:59:57;25.70;49.80
38480;DHT22;53952;51.980;5.934;2022-07-01T05:02:22;25.70;49.80
38480;DHT22;53952;51.980;5.934;2022-07-01T05:04:48;25.70;49.80
38480;DHT22;53952;51.980;5.934;2022-07-01T05:07:14;25.70;49.80
38480;DHT22;53952;51.980;5.934;2022-07-01T05:09:57;25.70;49.80
38480;DHT22;53952;51.980;5.934;2022-07-01T05:12:24;25.70;49.80
38480;DHT22;53952;51.980;5.934;2022-07-01T05:14:50;25.70;49.80
38480;DHT22;53952;51.980;5.934;2022-07-01T05:17:16;25.70;49.80
38480;DHT22;53952;51.980;5.934;2022-07-01T05:19:42;25.70;49.80
38480;DHT22;53952;51.980;5.934;2022-07-01T05:22:26;25.70;49.80
38480;DHT22;53952;51.980;5.934;2022-07-01T05:24:52;25.70;49.90
38480;DHT22;53952;51.980;5.934;2022-07-01T05:27:17;25.70;49.80
38480;DHT22;53952;51.980;5.934;2022-07-01T05:29:43;25.70;49.80
38480;DHT22;53952;51.980;5.934;2022-07-01T05:32:09;25.70;49.90
38480;DHT22;53952;51.980;5.934;2022-07-01T05:34:34;25.70;49.80
38480;DHT22;53952;51.980;5.934;2022-07-01T05:37:02;25.70;49.80
38480;DHT22;53952;51.980;5.934;2022-07-01T05:39:28;25.70;49.80
38480;DHT22;53952;51.980;5.934;2022-07-01T05:41:54;25.70;49.80
38480;DHT22;53952;51.980;5.934;2022-07-01T05:44:19;25.70;49.80
38480;DHT22;53952;51.980;5.934;2022-07-01T05:46:46;25.70;49.80
38480;DHT22;53952;51.980;5.934;2022-07-01T05:49:12;25.70;49.80
38480;DHT22;53952;51.980;5.934;2022-07-01T05:51:38;25.70;49.80
38480;DHT22;53952;51.980;5.934;2022-07-01T05:54:03;25.60;49.70
38480;DHT22;53952;51.980;5.934;2022-07-01T05:56:29;25.70;49.80
38480;DHT22;53952;51.980;5.934;2022-07-01T05:58:55;25.70;49.80
38480;DHT22;53952;51.980;5.934;2022-07-01T06:01:20;25.60;50.40
38480;DHT22;53952;51.980;5.934;2022-07-01T06:03:46;25.70;49.80
38480;DHT22;53952;51.980;5.934;2022-07-01T06:06:13;25.60;49.80
38480;DHT22;53952;51.980;5.934;2022-07-01T06:08:38;25.60;49.80
38480;DHT22;53952;51.980;5.934;2022-07-01T06:11:04;25.60;49.90
38480;DHT22;53952;51.980;5.934;2022-07-01T06:13:30;25.60;49.80
38480;DHT22;53952;51.980;5.934;2022-07-01T06:15:56;25.60;49.90
38480;DHT22;53952;51.980;5.934;2022-07-01T06:18:24;25.60;49.90
38480;DHT22;53952;51.980;5.934;2022-07-01T06:20:50;25.60;49.80
38480;DHT22;53952;51.980;5.934;2022-07-01T06:23:16;25.60;49.90
38480;DHT22;53952;51.980;5.934;2022-07-01T06:25:42;25.60;49.90
38480;DHT22;53952;51.980;5.934;2022-07-01T06:28:07;25.60;50.00
38480;DHT22;53952;51.980;5.934;2022-07-01T06:30:33;25.60;50.00
38480;DHT22;53952;51.980;5.934;2022-07-01T06:32:58;25.60;50.00
38480;DHT22;53952;51.980;5.934;2022-07-01T06:35:24;25.60;50.00
38480;DHT22;53952;51.980;5.934;2022-07-01T06:37:50;25.60;50.00
38480;DHT22;53952;51.980;5.934;2022-07-01T06:40:15;25.60;50.00
38480;DHT22;53952;51.980;5.934;2022-07-01T06:42:41;25.60;50.00
38480;DHT22;53952;51.980;5.934;2022-07-01T06:45:07;25.60;50.00
38480;DHT22;53952;51.980;5.934;2022-07-01T06:47:33;25.60;50.00
38480;DHT22;53952;51.980;5.934;2022-07-01T06:49:58;25.60;50.00
38480;DHT22;53952;51.980;5.934;2022-07-01T06:52:24;25.60;49.90
38480;DHT22;53952;51.980;5.934;2022-07-01T06:54:50;25.60;49.90
38480;DHT22;53952;51.980;5.934;2022-07-01T06:57:16;25.60;49.90
38480;DHT22;53952;51.980;5.934;2022-07-01T06:59:42;25.60;50.00
38480;DHT22;53952;51.980;5.934;2022-07-01T07:02:07;25.60;49.90
38480;DHT22;53952;51.980;5.934;2022-07-01T07:04:34;25.60;49.90
38480;DHT22;53952;51.980;5.934;2022-07-01T07:07:00;25.60;49.90
38480;DHT22;53952;51.980;5.934;2022-07-01T07:09:26;25.60;50.00
38480;DHT22;53952;51.980;5.934;2022-07-01T07:11:51;25.60;49.90
38480;DHT22;53952;51.980;5.934;2022-07-01T07:14:17;25.60;49.90
38480;DHT22;53952;51.980;5.934;2022-07-01T07:16:43;25.60;49.90
38480;DHT22;53952;51.980;5.934;2022-07-01T07:19:08;25.60;49.90
38480;DHT22;53952;51.980;5.934;2022-07-01T07:21:35;25.60;50.00
38480;DHT22;53952;51.980;5.934;2022-07-01T07:24:01;25.60;50.00
38480;DHT22;53952;51.980;5.934;2022-07-01T07:26:26;25.60;50.00
38480;DHT22;53952;51.980;5.934;2022-07-01T07:28:52;25.60;50.00
38480;DHT22;53952;51.980;5.934;2022-07-01T07:31:17;25.60;50.00
38480;DHT22;53952;51.980;5.934;2022-07-01T07:33:43;25.60;49.90
38480;DHT22;53952;51.980;5.934;2022-07-01T07:36:09;25.60;49.80
38480;DHT22;53952;51.980;5.934;2022-07-01T07:38:37;25.40;49.70
38480;DHT22;53952;51.980;5.934;2022-07-01T07:41:03;25.30;49.90
38480;DHT22;53952;51.980;5.934;2022-07-01T07:43:29;25.30;50.00
38480;DHT22;53952;51.980;5.934;2022-07-01T07:45:55;25.20;50.00
38480;DHT22;53952;51.980;5.934;2022-07-01T07:48:21;25.10;50.10
38480;DHT22;53952;51.980;5.934;2022-07-01T07:50:46;25.00;50.20
38480;DHT22;53952;51.980;5.934;2022-07-01T07:53:13;24.90;50.20
38480;DHT22;53952;51.980;5.934;2022-07-01T07:55:38;24.90;50.30
38480;DHT22;53952;51.980;5.934;2022-07-01T07:58:05;24.80;50.30
38480;DHT22;53952;51.980;5.934;2022-07-01T08:00:31;24.80;50.40
38480;DHT22;53952;51.980;5.934;2022-07-01T08:02:57;24.70;50.30
38480;DHT22;53952;51.980;5.934;2022-07-01T08:05:22;24.60;50.30
38480;DHT22;53952;51.980;5.934;2022-07-01T08:07:48;24.60;50.40
38480;DHT22;53952;51.980;5.934;2022-07-01T08:10:14;24.50;51.10
38480;DHT22;53952;51.980;5.934;2022-07-01T08:12:40;24.50;50.40
38480;DHT22;53952;51.980;5.934;2022-07-01T08:15:07;24.40;50.40
38480;DHT22;53952;51.980;5.934;2022-07-01T08:17:33;24.40;50.40
38480;DHT22;53952;51.980;5.934;2022-07-01T08:19:58;24.40;50.40
38480;DHT22;53952;51.980;5.934;2022-07-01T08:22:24;24.40;50.40
38480;DHT22;53952;51.980;5.934;2022-07-01T08:24:50;24.40;50.40
38480;DHT22;53952;51.980;5.934;2022-07-01T08:27:15;24.40;50.40
38480;DHT22;53952;51.980;5.934;2022-07-01T08:29:41;24.40;50.40
38480;DHT22;53952;51.980;5.934;2022-07-01T08:32:07;24.40;50.40
38480;DHT22;53952;51.980;5.934;2022-07-01T08:34:33;24.40;50.30
38480;DHT22;53952;51.980;5.934;2022-07-01T08:37:01;24.40;50.30
38480;DHT22;53952;51.980;5.934;2022-07-01T08:39:27;24.30;50.90
38480;DHT22;53952;51.980;5.934;2022-07-01T08:41:52;24.40;50.40
38480;DHT22;53952;51.980;5.934;2022-07-01T08:44:18;24.40;50.40
38480;DHT22;53952;51.980;5.934;2022-07-01T08:46:45;24.40;50.90
38480;DHT22;53952;51.980;5.934;2022-07-01T08:49:12;24.40;50.40
38480;DHT22;53952;51.980;5.934;2022-07-01T08:51:37;24.40;50.30
38480;DHT22;53952;51.980;5.934;2022-07-01T08:54:03;24.30;50.20
38480;DHT22;53952;51.980;5.934;2022-07-01T08:56:29;24.40;50.30
38480;DHT22;53952;51.980;5.934;2022-07-01T08:59:07;24.30;50.20
38480;DHT22;53952;51.980;5.934;2022-07-01T09:01:34;24.30;50.30
38480;DHT22;53952;51.980;5.934;2022-07-01T09:06:39;24.40;50.10
38480;DHT22;53952;51.980;5.934;2022-07-01T09:11:51;24.30;50.00
38480;DHT22;53952;51.980;5.934;2022-07-01T09:14:26;24.40;49.90
38480;DHT22;53952;51.980;5.934;2022-07-01T09:16:53;24.30;49.80
38480;DHT22;53952;51.980;5.934;2022-07-01T09:19:21;24.20;49.90
38480;DHT22;53952;51.980;5.934;2022-07-01T09:21:51;24.20;49.80
38480;DHT22;53952;51.980;5.934;2022-07-01T09:24:30;24.20;49.60
38480;DHT22;53952;51.980;5.934;2022-07-01T09:26:56;24.30;49.50
38480;DHT22;53952;51.980;5.934;2022-07-01T09:29:27;24.20;49.50
38480;DHT22;53952;51.980;5.934;2022-07-01T09:31:53;24.30;49.50
38480;DHT22;53952;51.980;5.934;2022-07-01T09:34:19;24.20;49.40
38480;DHT22;53952;51.980;5.934;2022-07-01T09:36:53;24.20;49.30
38480;DHT22;53952;51.980;5.934;2022-07-01T09:39:19;24.30;49.30
38480;DHT22;53952;51.980;5.934;2022-07-01T09:41:45;24.30;49.20
38480;DHT22;53952;51.980;5.934;2022-07-01T09:44:10;24.30;49.20
38480;DHT22;53952;51.980;5.934;2022-07-01T09:46:36;24.40;49.10
38480;DHT22;53952;51.980;5.934;2022-07-01T09:49:02;24.40;49.00
38480;DHT22;53952;51.980;5.934;2022-07-01T09:51:28;24.40;48.80
38480;DHT22;53952;51.980;5.934;2022-07-01T09:53:56;24.40;48.70
38480;DHT22;53952;51.980;5.934;2022-07-01T09:56:23;24.40;48.60
38480;DHT22;53952;51.980;5.934;2022-07-01T09:58:49;24.40;49.10
38480;DHT22;53952;51.980;5.934;2022-07-01T10:01:15;24.40;48.30
38480;DHT22;53952;51.980;5.934;2022-07-01T10:03:41;24.40;48.20
38480;DHT22;53952;51.980;5.934;2022-07-01T10:14:37;24.50;47.90
38480;DHT22;53952;51.980;5.934;2022-07-01T10:17:05;24.40;47.90
38480;DHT22;53952;51.980;5.934;2022-07-01T10:19:31;24.40;47.90
38480;DHT22;53952;51.980;5.934;2022-07-01T10:22:24;24.40;47.80
38480;DHT22;53952;51.980;5.934;2022-07-01T10:24:50;24.50;47.60
38480;DHT22;53952;51.980;5.934;2022-07-01T10:27:24;24.40;47.70
38480;DHT22;53952;51.980;5.934;2022-07-01T10:30:15;24.50;47.60
38480;DHT22;53952;51.980;5.934;2022-07-01T10:32:48;24.50;47.50
38480;DHT22;53952;51.980;5.934;2022-07-01T10:35:14;24.50;47.50
38480;DHT22;53952;51.980;5.934;2022-07-01T10:38:00;24.40;47.40
38480;DHT22;53952;51.980;5.934;2022-07-01T10:40:43;24.60;47.30
38480;DHT22;53952;51.980;5.934;2022-07-01T10:43:34;24.60;47.90
38480;DHT22;53952;51.980;5.934;2022-07-01T10:46:00;24.60;47.20
38480;DHT22;53952;51.980;5.934;2022-07-01T10:48:26;24.50;47.20
38480;DHT22;53952;51.980;5.934;2022-07-01T10:50:53;24.50;47.10
38480;DHT22;53952;51.980;5.934;2022-07-01T10:53:19;24.50;47.70
38480;DHT22;53952;51.980;5.934;2022-07-01T10:55:50;24.50;47.00
38480;DHT22;53952;51.980;5.934;2022-07-01T10:58:15;24.60;47.00
38480;DHT22;53952;51.980;5.934;2022-07-01T11:00:49;24.50;47.00
38480;DHT22;53952;51.980;5.934;2022-07-01T11:03:20;24.60;46.90
38480;DHT22;53952;51.980;5.934;2022-07-01T11:05:52;24.70;46.90
38480;DHT22;53952;51.980;5.934;2022-07-01T11:08:18;24.70;46.80
38480;DHT22;53952;51.980;5.934;2022-07-01T11:10:48;24.70;46.70
38480;DHT22;53952;51.980;5.934;2022-07-01T11:13:14;24.70;46.60
38480;DHT22;53952;51.980;5.934;2022-07-01T11:15:40;24.80;46.60
38480;DHT22;53952;51.980;5.934;2022-07-01T11:18:07;24.80;46.50
38480;DHT22;53952;51.980;5.934;2022-07-01T11:20:32;24.80;46.40
38480;DHT22;53952;51.980;5.934;2022-07-01T11:22:59;24.70;46.30
38480;DHT22;53952;51.980;5.934;2022-07-01T11:25:25;24.70;46.20
38480;DHT22;53952;51.980;5.934;2022-07-01T11:27:52;24.70;46.20
38480;DHT22;53952;51.980;5.934;2022-07-01T11:30:20;24.70;46.10
38480;DHT22;53952;51.980;5.934;2022-07-01T11:32:51;24.80;46.10
38480;DHT22;53952;51.980;5.934;2022-07-01T11:35:37;24.80;46.00
38480;DHT22;53952;51.980;5.934;2022-07-01T11:38:24;24.80;45.80
38480;DHT22;53952;51.980;5.934;2022-07-01T11:41:17;24.70;45.90
38480;DHT22;53952;51.980;5.934;2022-07-01T11:43:43;24.80;45.90
38480;DHT22;53952;51.980;5.934;2022-07-01T11:46:09;24.80;45.80
38480;DHT22;53952;51.980;5.934;2022-07-01T11:48:36;24.80;45.80
38480;DHT22;53952;51.980;5.934;2022-07-01T11:51:12;24.80;45.80
38480;DHT22;53952;51.980;5.934;2022-07-01T11:53:43;24.80;45.70
38480;DHT22;53952;51.980;5.934;2022-07-01T11:56:09;24.80;45.60
38480;DHT22;53952;51.980;5.934;2022-07-01T11:58:42;24.80;45.70
38480;DHT22;53952;51.980;5.934;2022-07-01T12:01:08;24.90;45.60
38480;DHT22;53952;51.980;5.934;2022-07-01T12:03:34;24.90;45.60
38480;DHT22;53952;51.980;5.934;2022-07-01T12:06:00;24.90;45.50
38480;DHT22;53952;51.980;5.934;2022-07-01T12:08:26;24.90;45.50
38480;DHT22;53952;51.980;5.934;2022-07-01T12:10:52;25.00;45.40
38480;DHT22;53952;51.980;5.934;2022-07-01T12:13:25;25.00;45.30
38480;DHT22;53952;51.980;5.934;2022-07-01T12:15:51;25.00;45.10
38480;DHT22;53952;51.980;5.934;2022-07-01T12:18:17;25.00;45.20
38480;DHT22;53952;51.980;5.934;2022-07-01T12:20:53;25.00;45.20
38480;DHT22;53952;51.980;5.934;2022-07-01T12:23:19;25.20;45.20
38480;DHT22;53952;51.980;5.934;2022-07-01T12:25:49;25.20;45.20
38480;DHT22;53952;51.980;5.934;2022-07-01T12:28:32;25.30;45.20
38480;DHT22;53952;51.980;5.934;2022-07-01T12:33:29;25.40;45.20
38480;DHT22;53952;51.980;5.934;2022-07-01T12:35:55;25.40;45.20
38480;DHT22;53952;51.980;5.934;2022-07-01T12:38:21;25.40;45.10
38480;DHT22;53952;51.980;5.934;2022-07-01T12:40:47;25.50;45.20
38480;DHT22;53952;51.980;5.934;2022-07-01T12:43:29;25.60;45.20
38480;DHT22;53952;51.980;5.934;2022-07-01T12:45:58;25.60;45.10
38480;DHT22;53952;51.980;5.934;2022-07-01T12:48:24;25.60;45.20
38480;DHT22;53952;51.980;5.934;2022-07-01T12:50:53;25.70;45.30
38480;DHT22;53952;51.980;5.934;2022-07-01T12:53:20;25.70;45.20
38480;DHT22;53952;51.980;5.934;2022-07-01T12:55:48;25.70;45.20
38480;DHT22;53952;51.980;5.934;2022-07-01T12:58:23;25.70;45.20
38480;DHT22;53952;51.980;5.934;2022-07-01T13:00:54;25.80;45.20
38480;DHT22;53952;51.980;5.934;2022-07-01T13:03:22;25.80;45.20
38480;DHT22;53952;51.980;5.934;2022-07-01T13:05:49;25.80;45.30
38480;DHT22;53952;51.980;5.934;2022-07-01T13:08:15;25.90;45.30
38480;DHT22;53952;51.980;5.934;2022-07-01T13:10:41;25.90;45.30
38480;DHT22;53952;51.980;5.934;2022-07-01T13:13:07;25.90;45.30
38480;DHT22;53952;51.980;5.934;2022-07-01T13:18:35;25.90;45.30
38480;DHT22;53952;51.980;5.934;2022-07-01T13:23:36;26.00;45.40
38480;DHT22;53952;51.980;5.934;2022-07-01T13:26:02;26.00;45.40
38480;DHT22;53952;51.980;5.934;2022-07-01T13:28:27;26.00;45.40
38480;DHT22;53952;51.980;5.934;2022-07-01T13:30:53;26.00;45.40
38480;DHT22;53952;51.980;5.934;2022-07-01T13:33:19;26.00;45.40
38480;DHT22;53952;51.980;5.934;2022-07-01T13:35:45;26.10;45.50
38480;DHT22;53952;51.980;5.934;2022-07-01T13:38:10;26.10;45.40
38480;DHT22;53952;51.980;5.934;2022-07-01T13:40:36;26.10;45.40
38480;DHT22;53952;51.980;5.934;2022-07-01T13:43:02;26.10;45.40
38480;DHT22;53952;51.980;5.934;2022-07-01T13:45:28;26.10;45.40
38480;DHT22;53952;51.980;5.934;2022-07-01T13:47:54;26.20;46.10
38480;DHT22;53952;51.980;5.934;2022-07-01T13:50:19;26.20;45.50
38480;DHT22;53952;51.980;5.934;2022-07-01T13:52:47;26.20;45.50
38480;DHT22;53952;51.980;5.934;2022-07-01T13:55:13;26.20;45.50
38480;DHT22;53952;51.980;5.934;2022-07-01T13:57:39;26.20;45.50
38480;DHT22;53952;51.980;5.934;2022-07-01T14:00:05;26.20;45.50
38480;DHT22;53952;51.980;5.934;2022-07-01T14:02:31;26.20;45.50
38480;DHT22;53952;51.980;5.934;2022-07-01T14:04:57;26.20;45.50
38480;DHT22;53952;51.980;5.934;2022-07-01T14:07:23;26.20;45.50
38480;DHT22;53952;51.980;5.934;2022-07-01T14:09:48;26.20;45.50
38480;DHT22;53952;51.980;5.934;2022-07-01T14:12:14;26.30;45.50
38480;DHT22;53952;51.980;5.934;2022-07-01T14:14:41;26.30;45.50
38480;DHT22;53952;51.980;5.934;2022-07-01T14:17:07;26.30;45.50
38480;DHT22;53952;51.980;5.934;2022-07-01T14:19:33;26.30;45.40
38480;DHT22;53952;51.980;5.934;2022-07-01T14:21:59;26.30;45.30
38480;DHT22;53952;51.980;5.934;2022-07-01T14:24:25;26.30;45.30
38480;DHT22;53952;51.980;5.934;2022-07-01T14:26:51;26.30;45.20
38480;DHT22;53952;51.980;5.934;2022-07-01T14:29:16;26.30;45.20
38480;DHT22;53952;51.980;5.934;2022-07-01T14:31:42;26.20;45.00
38480;DHT22;53952;51.980;5.934;2022-07-01T14:34:08;26.20;45.00
38480;DHT22;53952;51.980;5.934;2022-07-01T14:36:33;26.20;45.00
38480;DHT22;53952;51.980;5.934;2022-07-01T14:38:59;26.10;44.90
38480;DHT22;53952;51.980;5.934;2022-07-01T14:41:24;26.10;44.90
38480;DHT22;53952;51.980;5.934;2022-07-01T14:43:50;26.10;44.80
38480;DHT22;53952;51.980;5.934;2022-07-01T14:46:16;26.00;44.70
38480;DHT22;53952;51.980;5.934;2022-07-01T14:48:42;26.00;44.50
38480;DHT22;53952;51.980;5.934;2022-07-01T14:51:07;26.00;44.40
38480;DHT22;53952;51.980;5.934;2022-07-01T14:53:33;26.00;44.20
38480;DHT22;53952;51.980;5.934;2022-07-01T14:55:59;26.00;44.00
38480;DHT22;53952;51.980;5.934;2022-07-01T14:58:24;26.00;43.90
38480;DHT22;53952;51.980;5.934;2022-07-01T15:00:50;26.00;43.80
38480;DHT22;53952;51.980;5.934;2022-07-01T15:03:16;25.90;43.60
38480;DHT22;53952;51.980;5.934;2022-07-01T15:05:41;25.90;43.60
38480;DHT22;53952;51.980;5.934;2022-07-01T15:08:07;25.90;43.50
38480;DHT22;53952;51.980;5.934;2022-07-01T15:10:33;25.80;43.40
38480;DHT22;53952;51.980;5.934;2022-07-01T15:12:58;25.80;43.40
38480;DHT22;53952;51.980;5.934;2022-07-01T15:15:24;25.80;43.40
38480;DHT22;53952;51.980;5.934;2022-07-01T15:17:50;25.80;43.50
38480;DHT22;53952;51.980;5.934;2022-07-01T15:20:16;25.70;43.50
38480;DHT22;53952;51.980;5.934;2022-07-01T15:22:42;25.70;43.50
38480;DHT22;53952;51.980;5.934;2022-07-01T15:25:09;25.70;43.60
38480;DHT22;53952;51.980;5.934;2022-07-01T15:27:35;25.60;43.60
38480;DHT22;53952;51.980;5.934;2022-07-01T15:30:02;25.60;43.70
38480;DHT22;53952;51.980;5.934;2022-07-01T15:32:28;25.60;43.70
38480;DHT22;53952;51.980;5.934;2022-07-01T15:34:54;25.60;43.80
38480;DHT22;53952;51.980;5.934;2022-07-01T15:37:20;25.60;43.90
38480;DHT22;53952;51.980;5.934;2022-07-01T15:39:45;25.50;44.00
38480;DHT22;53952;51.980;5.934;2022-07-01T15:42:11;25.50;44.00
38480;DHT22;53952;51.980;5.934;2022-07-01T15:44:36;25.50;44.20
38480;DHT22;53952;51.980;5.934;2022-07-01T15:47:02;25.40;44.20
38480;DHT22;53952;51.980;5.934;2022-07-01T15:49:48;25.40;44.30
38480;DHT22;53952;51.980;5.934;2022-07-01T15:52:13;25.40;44.50
38480;DHT22;53952;51.980;5.934;2022-07-01T15:54:39;25.40;44.60
38480;DHT22;53952;51.980;5.934;2022-07-01T15:57:05;25.40;45.30
38480;DHT22;53952;51.980;5.934;2022-07-01T15:59:30;25.30;44.70